Krakovo, Pollando

17:05 CEST je la 24an de junio 2018 (GMT +0200)
Dachy Tatarczuch | | Change Station

Elev 781 ft 50.59 °N, 20.16 °E | Updated 7 seconds ago

Pliparte nuba
Pliparte nuba
61.7 °F
Sentas kiel 61.7 °F
N
8.72
Vento Varianta Vento from NOk
Gusts 9.8 mej/h

hodiaŭ
High -- | Low -- °F
--% Ebla precip.
hieraŭ
High -- | Low -- °F
Precip. -- co
Aerpremo 30.01 co
Vidodistanco 6.2 mejloj
Nuboj Malmultaj 3000 ft
Malpliparte nuba 5300 ft
Rosopunkto 30 °F
Humido 30%
Pluvokvanto 0.00 co
Neĝprofundo Not available.
4:28 AM 8:54 PM
Kreskanta Lunĝibo, 88% visible
METAR EPKK 241500Z 22009KT 9999 FEW030 SCT053 13/11 Q1016
Aerpremo 30.01 co
Vidodistanco 6.2 mejloj
Nuboj Malmultaj 3000 ft
Malpliparte nuba 5300 ft
Rosopunkto 30 °F
Humido 30%
Pluvokvanto 0.00 co
Neĝprofundo Not available.
4:28 AM 8:54 PM
Kreskanta Lunĝibo, 88% visible
METAR EPKK 241500Z 22009KT 9999 FEW030 SCT053 13/11 Q1016

Get Severe Weather Alerts

Thanks for signing up!

Be on the lookout for a verification email in your inbox.

You'll start receiving the daily forecast at 6 AM.

×

10-Day Weather Forecast

×

Almanac

Astronomio

Jun. 24, 2018 Leviĝo Subiro
Aktuala tempo
Civila krepusko
Naŭtika krepusko
Astronomia krepusko
Luno
Daŭro de videbla lumo
Daŭro de tago
Tomorrow will be .
, % of the Moon is Illuminated

Hodiaŭaj ekstremaĵoj

Country Highs Country Lows

Community

WunderPhotos

Category 6

Welcome to Category 6. This is the collective home for Weather Underground's featured writeups by Dr. Jeff Masters (right), Bob Henson (left), Chris Burt, and other regular contributors.

Nearby

Aerkvalito

  Aerkvalito Aerkvalita indico Poluanto
Not available.

Neĝa profundeco

Station Depth Alteco

Earthquake Activity

Urbo Distance Mag. Time & Date
Minimum magnitude displayed is 2.5.

Coastal Water Temperatures

Loko Temperaturo

Stations

Najbaraj veter-stacioj

Loko de stacio Temp Venta
kvazaŭtemperaturo
Rosopunkto Humido Vento Precip. Elev Ĝisdatigita je Tipo